Time;durP1;ratioP1;P1;durP2;ratioP2;P2;SDS_P1;SDS_P2;PMS_P1;PMS_P2;Temp;Humidity;BMP_temperature;BMP_pressure;BME280_temperature;BME280_humidity;BME280_pressure;Samples;Min_cycle;Max_cycle;Signal;HPM_P1;HPM_P2
2024/02/16 00:02:11;;;;;;;4.40;2.08;;;;;;;14.20;100.00;100910.47;5287960;27;20036;-75
2024/02/16 00:04:42;;;;;;;9.80;2.75;;;;;;;14.14;100.00;100912.06;5284500;27;20024;-75
2024/02/16 00:07:12;;;;;;;4.07;2.30;;;;;;;14.10;100.00;100902.66;5292735;27;20050;-75
2024/02/16 00:09:43;;;;;;;4.60;2.20;;;;;;;14.02;100.00;100908.16;5294997;27;20019;-75
2024/02/16 00:12:14;;;;;;;3.92;1.85;;;;;;;13.98;100.00;100902.31;5285733;27;20094;-75
2024/02/16 00:14:45;;;;;;;4.15;2.05;;;;;;;13.86;100.00;100902.97;5292755;27;20015;-74
2024/02/16 00:17:16;;;;;;;5.78;2.55;;;;;;;13.90;100.00;100904.25;5285378;27;20506;-75
2024/02/16 00:19:47;;;;;;;6.07;2.45;;;;;;;13.92;100.00;100900.34;5289199;27;20065;-74
2024/02/16 00:22:17;;;;;;;6.15;2.72;;;;;;;13.90;100.00;100905.09;5288409;27;20048;-74
2024/02/16 00:24:47;;;;;;;6.50;2.22;;;;;;;13.94;100.00;100897.47;5283449;27;20028;-74
2024/02/16 00:27:18;;;;;;;6.55;2.45;;;;;;;13.90;100.00;100901.56;5285829;27;20024;-75
2024/02/16 00:29:48;;;;;;;4.45;2.20;;;;;;;13.73;100.00;100893.66;5289072;27;20098;-74
2024/02/16 00:32:19;;;;;;;4.18;2.08;;;;;;;13.77;100.00;100896.00;5293075;27;20016;-74
2024/02/16 00:34:53;;;;;;;4.32;2.10;;;;;;;13.69;100.00;100888.81;5288066;27;20020;-74
2024/02/16 00:37:24;;;;;;;5.05;2.20;;;;;;;13.67;100.00;100894.41;5284252;27;20023;-74
2024/02/16 00:39:55;;;;;;;3.65;2.05;;;;;;;13.58;100.00;100882.03;5291907;27;20196;-74
2024/02/16 00:42:28;;;;;;;3.58;2.05;;;;;;;13.57;100.00;100887.63;5286985;27;20054;-74
2024/02/16 00:45:00;;;;;;;7.68;2.53;;;;;;;13.52;100.00;100882.78;5285931;27;20106;-74
2024/02/16 00:47:30;;;;;;;3.30;2.13;;;;;;;13.43;100.00;100891.97;5289727;27;20080;-74
2024/02/16 00:50:01;;;;;;;4.55;2.05;;;;;;;13.30;100.00;100886.34;5284798;27;20468;-74
2024/02/16 00:52:32;;;;;;;6.50;2.58;;;;;;;13.19;100.00;100887.59;5288191;27;20030;-75
2024/02/16 00:55:03;;;;;;;5.15;2.20;;;;;;;13.08;100.00;100882.66;5283778;27;20016;-74
2024/02/16 00:57:34;;;;;;;7.95;2.60;;;;;;;12.99;100.00;100881.88;5278683;27;20186;-74
2024/02/16 01:00:06;;;;;;;5.70;2.40;;;;;;;12.92;100.00;100879.09;5280230;28;20139;-74
2024/02/16 01:02:36;;;;;;;11.98;2.53;;;;;;;12.88;100.00;100880.47;5275873;28;20023;-74
2024/02/16 01:05:09;;;;;;;4.53;2.40;;;;;;;12.82;100.00;100872.28;5286749;27;20125;-74
2024/02/16 01:07:42;;;;;;;4.55;2.85;;;;;;;12.75;100.00;100874.88;5288900;27;20030;-74
2024/02/16 01:10:12;;;;;;;5.75;3.08;;;;;;;12.70;100.00;100877.22;5281731;27;20028;-74
2024/02/16 01:12:43;;;;;;;6.68;2.90;;;;;;;12.65;100.00;100880.47;5288767;27;20022;-74
2024/02/16 01:15:13;;;;;;;4.95;2.22;;;;;;;12.62;100.00;100888.91;5285784;27;20016;-74
2024/02/16 01:17:44;;;;;;;8.20;2.53;;;;;;;12.60;100.00;100873.94;5284272;27;20015;-74
2024/02/16 01:20:15;;;;;;;8.57;2.58;;;;;;;12.61;100.00;100871.09;5285494;27;20027;-74
2024/02/16 01:22:45;;;;;;;6.07;2.47;;;;;;;12.63;100.00;100871.72;5284665;27;20055;-74
2024/02/16 01:25:15;;;;;;;6.22;2.47;;;;;;;12.65;100.00;100869.72;5283445;27;20103;-74
2024/02/16 01:27:46;;;;;;;6.28;2.67;;;;;;;12.66;100.00;100867.84;5288158;27;20068;-74
2024/02/16 01:30:18;;;;;;;4.15;2.47;;;;;;;12.63;100.00;100871.72;5281985;27;20082;-74
2024/02/16 01:32:48;;;;;;;7.18;3.00;;;;;;;12.59;100.00;100866.88;5280962;27;20124;-74
2024/02/16 01:35:20;;;;;;;11.32;2.80;;;;;;;12.51;100.00;100864.28;5287119;27;20173;-74
2024/02/16 01:37:50;;;;;;;6.13;2.55;;;;;;;12.49;100.00;100869.81;5277065;27;20016;-74
2024/02/16 01:40:21;;;;;;;6.43;2.53;;;;;;;12.46;100.00;100870.19;5279318;27;20046;-74
2024/02/16 01:42:52;;;;;;;7.78;2.75;;;;;;;12.42;100.00;100864.31;5284146;27;20102;-74
2024/02/16 01:45:23;;;;;;;3.97;2.20;;;;;;;12.40;100.00;100865.53;5286435;27;20027;-74
2024/02/16 01:47:54;;;;;;;5.25;2.22;;;;;;;12.37;100.00;100860.47;5286192;27;20030;-74
2024/02/16 01:50:25;;;;;;;6.20;2.63;;;;;;;12.37;100.00;100857.78;5283554;27;20030;-74
2024/02/16 01:52:56;;;;;;;4.18;2.05;;;;;;;12.36;100.00;100864.19;5284293;27;20027;-74
2024/02/16 01:55:26;;;;;;;4.05;2.38;;;;;;;12.37;100.00;100864.00;5287551;27;20019;-74
2024/02/16 01:57:58;;;;;;;4.95;2.30;;;;;;;12.38;100.00;100867.53;5285826;28;20015;-74
2024/02/16 02:00:28;;;;;;;3.88;2.38;;;;;;;12.38;100.00;100868.38;5284482;27;20019;-74
2024/02/16 02:02:59;;;;;;;3.85;2.30;;;;;;;12.38;100.00;100852.22;5284969;27;20022;-74
2024/02/16 02:05:29;;;;;;;4.80;2.40;;;;;;;12.37;100.00;100853.25;5283316;28;20020;-74
2024/02/16 02:08:09;;;;;;;5.35;2.67;;;;;;;12.37;100.00;100857.78;5285375;27;20023;-74
2024/02/16 02:10:39;;;;;;;8.32;3.03;;;;;;;12.32;100.00;100860.16;5285931;28;20027;-74
2024/02/16 02:13:23;;;;;;;6.63;2.63;;;;;;;12.26;100.00;100848.28;5281054;27;20076;-73
2024/02/16 02:16:13;;;;;;;5.60;2.70;;;;;;;12.28;100.00;100851.63;5281934;28;20032;-75
2024/02/16 02:18:59;;;;;;;5.45;2.28;;;;;;;12.38;100.00;100841.47;5286398;28;20012;-75
2024/02/16 02:21:50;;;;;;;5.45;2.33;;;;;;;12.50;100.00;100841.03;5283188;28;20046;-76
2024/02/16 02:24:21;;;;;;;5.45;2.58;;;;;;;12.62;100.00;100836.94;5281546;27;20045;-76
2024/02/16 02:26:54;;;;;;;3.53;2.20;;;;;;;12.68;100.00;100842.44;5280445;28;20024;-76
2024/02/16 02:29:33;;;;;;;3.72;2.10;;;;;;;12.78;100.00;100838.66;5281206;28;20063;-76
2024/02/16 02:32:13;;;;;;;4.20;2.20;;;;;;;12.80;100.00;100839.28;5279725;28;20743;-75
2024/02/16 02:34:43;;;;;;;5.18;2.35;;;;;;;12.84;100.00;100846.00;5286415;28;20414;-76
2024/02/16 02:37:14;;;;;;;5.10;2.20;;;;;;;12.97;100.00;100843.53;5283467;28;20099;-75
2024/02/16 02:39:44;;;;;;;5.50;2.65;;;;;;;13.15;100.00;100827.91;5278559;28;20020;-75
2024/02/16 02:42:15;;;;;;;5.68;2.30;;;;;;;13.27;100.00;100830.16;5282812;28;20107;-75
2024/02/16 02:44:49;;;;;;;4.22;2.22;;;;;;;13.29;100.00;100839.72;5281769;28;20027;-76
2024/02/16 02:47:20;;;;;;;8.18;2.75;;;;;;;13.27;100.00;100831.00;5282745;28;20493;-76
2024/02/16 02:49:50;;;;;;;4.90;2.30;;;;;;;13.38;100.00;100832.41;5282942;28;20103;-75
2024/02/16 02:52:21;;;;;;;6.22;2.38;;;;;;;13.43;100.00;100835.38;5281182;28;20114;-75
2024/02/16 02:54:52;;;;;;;5.95;2.55;;;;;;;13.46;100.00;100835.84;5286491;28;20027;-75
2024/02/16 02:57:23;;;;;;;4.57;2.35;;;;;;;13.49;100.00;100842.72;5280990;28;20031;-75
2024/02/16 03:00:04;;;;;;;6.10;2.70;;;;;;;13.54;100.00;100836.75;5285153;28;20019;-76
2024/02/16 03:02:34;;;;;;;9.15;2.83;;;;;;;13.59;100.00;100835.19;5280496;28;20479;-76
2024/02/16 03:05:07;;;;;;;4.78;2.55;;;;;;;13.58;100.00;100836.22;5282528;28;20095;-76
2024/02/16 03:07:38;;;;;;;8.98;2.80;;;;;;;13.67;100.00;100840.50;5288698;27;20051;-76
2024/02/16 03:10:10;;;;;;;4.85;2.42;;;;;;;13.69;100.00;100841.13;5286452;28;20047;-76
2024/02/16 03:12:40;;;;;;;8.88;2.22;;;;;;;13.73;100.00;100830.81;5288001;27;20016;-76
2024/02/16 03:15:11;;;;;;;4.45;2.13;;;;;;;13.66;100.00;100835.28;5284222;28;20039;-76
2024/02/16 03:17:42;;;;;;;5.93;2.47;;;;;;;13.72;100.00;100834.53;5281903;28;20473;-76
2024/02/16 03:20:13;;;;;;;5.53;2.38;;;;;;;13.74;100.00;100830.63;5280606;28;20034;-76
2024/02/16 03:22:43;;;;;;;5.72;2.45;;;;;;;13.79;100.00;100829.22;5286108;28;20161;-75
2024/02/16 03:25:14;;;;;;;7.70;2.95;;;;;;;13.77;100.00;100842.91;5287698;27;20400;-76
2024/02/16 03:27:45;;;;;;;6.00;2.53;;;;;;;13.74;100.00;100833.31;5282930;28;20016;-76
2024/02/16 03:30:15;;;;;;;4.22;2.25;;;;;;;13.83;100.00;100825.97;5284067;28;20023;-76
2024/02/16 03:32:50;;;;;;;6.18;3.05;;;;;;;13.81;100.00;100819.94;5288313;27;20361;-76
2024/02/16 03:35:21;;;;;;;9.18;2.90;;;;;;;13.92;100.00;100824.84;5283246;27;20047;-76
2024/02/16 03:37:52;;;;;;;7.63;3.00;;;;;;;13.97;100.00;100822.41;5281854;27;20015;-76
2024/02/16 03:40:24;;;;;;;7.47;2.60;;;;;;;14.01;100.00;100820.19;5278212;28;20050;-76
2024/02/16 03:42:55;;;;;;;6.35;2.58;;;;;;;14.05;100.00;100824.16;5279135;28;20111;-76
2024/02/16 03:45:27;;;;;;;5.45;2.60;;;;;;;14.07;100.00;100830.22;5287033;28;20571;-76
2024/02/16 03:47:58;;;;;;;5.95;2.42;;;;;;;14.08;100.00;100825.66;5284716;28;20015;-76
2024/02/16 03:50:28;;;;;;;7.43;2.50;;;;;;;14.10;100.00;100823.59;5284938;28;20028;-76
2024/02/16 03:52:59;;;;;;;4.47;2.50;;;;;;;14.08;100.00;100826.47;5285162;27;20037;-76
2024/02/16 03:55:33;;;;;;;6.07;3.05;;;;;;;14.14;100.00;100836.50;5283750;28;20085;-76
2024/02/16 03:58:04;;;;;;;7.22;2.70;;;;;;;14.16;100.00;100839.03;5288929;27;20098;-76
2024/02/16 04:00:34;;;;;;;5.97;2.50;;;;;;;14.20;100.00;100832.22;5288242;27;20099;-76
2024/02/16 04:03:05;;;;;;;9.07;2.78;;;;;;;14.17;100.00;100830.75;5285588;27;20489;-77
2024/02/16 04:05:38;;;;;;;6.15;2.58;;;;;;;14.15;100.00;100835.47;5283661;28;20035;-76
2024/02/16 04:08:08;;;;;;;5.82;2.90;;;;;;;14.25;100.00;100830.59;5284631;28;20023;-76
2024/02/16 04:10:39;;;;;;;10.50;2.72;;;;;;;14.29;100.00;100833.78;5287081;27;20047;-76
2024/02/16 04:13:09;;;;;;;6.78;2.63;;;;;;;14.37;100.00;100838.22;5283722;28;20016;-76
2024/02/16 04:15:40;;;;;;;8.57;2.85;;;;;;;14.40;100.00;100829.72;5286030;27;20047;-76
2024/02/16 04:18:10;;;;;;;6.43;2.90;;;;;;;14.39;100.00;100828.91;5287727;27;20016;-76
2024/02/16 04:20:41;;;;;;;13.07;3.50;;;;;;;14.39;100.00;100825.38;5283877;27;20062;-76
2024/02/16 04:23:11;;;;;;;7.55;2.83;;;;;;;14.41;100.00;100834.13;5285489;27;20188;-76
2024/02/16 04:25:42;;;;;;;6.25;2.70;;;;;;;14.40;100.00;100837.81;5286794;27;20098;-77
2024/02/16 04:28:13;;;;;;;7.13;3.30;;;;;;;14.43;100.00;100827.50;5287117;27;20042;-76
2024/02/16 04:30:44;;;;;;;6.68;2.72;;;;;;;14.48;100.00;100824.25;5289069;27;20365;-76
2024/02/16 04:33:14;;;;;;;5.75;2.65;;;;;;;14.50;100.00;100832.97;5287051;27;20027;-76
2024/02/16 04:35:48;;;;;;;10.00;3.38;;;;;;;14.60;100.00;100833.50;5286102;27;20107;-76
2024/02/16 04:38:19;;;;;;;7.90;3.60;;;;;;;14.66;100.00;100843.56;5288242;27;20012;-76
2024/02/16 04:40:50;;;;;;;8.60;3.30;;;;;;;14.70;100.00;100831.31;5285566;27;20023;-76
2024/02/16 04:43:20;;;;;;;7.55;3.10;;;;;;;14.69;100.00;100845.84;5287132;27;20400;-76
2024/02/16 04:45:50;;;;;;;6.55;2.75;;;;;;;14.75;100.00;100842.38;5285376;27;20047;-76
2024/02/16 04:48:21;;;;;;;7.47;3.45;;;;;;;14.76;100.00;100848.63;5286960;27;20043;-76
2024/02/16 04:50:52;;;;;;;7.90;2.58;;;;;;;14.81;100.00;100858.81;5278252;27;20030;-77
2024/02/16 04:53:22;;;;;;;5.93;2.80;;;;;;;14.75;100.00;100857.72;5284685;27;20031;-76
2024/02/16 04:55:52;;;;;;;6.28;3.33;;;;;;;14.77;100.00;100861.09;5287511;27;20045;-77
2024/02/16 04:58:23;;;;;;;9.95;2.80;;;;;;;14.69;100.00;100856.66;5286224;27;20586;-76
2024/02/16 05:00:53;;;;;;;5.20;3.00;;;;;;;14.64;100.00;100851.00;5284879;27;20015;-76
2024/02/16 05:03:24;;;;;;;6.20;2.50;;;;;;;14.62;100.00;100861.16;5282484;28;20106;-76
2024/02/16 05:05:55;;;;;;;6.50;2.72;;;;;;;14.68;100.00;100868.47;5287493;27;20427;-75
2024/02/16 05:08:25;;;;;;;6.85;2.92;;;;;;;14.73;100.00;100876.84;5284142;27;20024;-76
2024/02/16 05:10:56;;;;;;;13.60;2.55;;;;;;;14.77;100.00;100875.44;5287127;27;20051;-76
2024/02/16 05:13:27;;;;;;;8.95;3.00;;;;;;;14.75;100.00;100869.38;5282799;27;20027;-75
2024/02/16 05:15:57;;;;;;;5.40;2.70;;;;;;;14.80;100.00;100870.66;5280524;27;20019;-76
2024/02/16 05:18:27;;;;;;;8.23;2.75;;;;;;;14.75;100.00;100865.84;5286876;27;20011;-76
2024/02/16 05:20:58;;;;;;;8.93;3.03;;;;;;;14.74;100.00;100865.00;5284073;27;20075;-76
2024/02/16 05:23:28;;;;;;;8.82;3.35;;;;;;;14.75;100.00;100868.53;5279335;27;20392;-76
2024/02/16 05:25:59;;;;;;;3.95;2.50;;;;;;;14.75;100.00;100869.38;5281606;27;20123;-76
2024/02/16 05:28:29;;;;;;;7.38;3.33;;;;;;;14.66;100.00;100880.50;5278552;27;20027;-76
2024/02/16 05:31:16;;;;;;;8.35;2.85;;;;;;;14.58;100.00;100876.06;5282736;27;20381;-76
2024/02/16 05:33:49;;;;;;;5.03;2.72;;;;;;;14.53;100.00;100878.50;5285504;27;20075;-76
2024/02/16 05:36:24;;;;;;;13.52;3.10;;;;;;;14.50;100.00;100878.88;5284070;27;20027;-76
2024/02/16 05:38:56;;;;;;;5.28;2.80;;;;;;;14.40;100.00;100875.63;5284956;27;20115;-76
2024/02/16 05:41:26;;;;;;;4.15;2.30;;;;;;;14.47;100.00;100884.63;5279984;27;20051;-76
2024/02/16 05:43:57;;;;;;;8.18;3.00;;;;;;;14.44;100.00;100882.31;5283183;27;20448;-76
2024/02/16 05:46:27;;;;;;;7.57;3.42;;;;;;;14.45;100.00;100882.09;5285836;27;20028;-76
2024/02/16 05:48:57;;;;;;;6.90;3.05;;;;;;;14.46;100.00;100883.81;5281842;27;20098;-75
2024/02/16 05:51:35;;;;;;;4.90;2.80;;;;;;;14.45;100.00;100883.97;5284573;27;20034;-76
2024/02/16 05:54:05;;;;;;;6.85;3.22;;;;;;;14.42;100.00;100881.69;5281132;28;20388;-76
2024/02/16 05:56:36;;;;;;;8.70;3.38;;;;;;;14.47;100.00;100887.34;5285690;27;20023;-76
2024/02/16 05:59:07;;;;;;;5.20;2.80;;;;;;;14.56;100.00;100891.63;5284822;27;20020;-76
2024/02/16 06:01:39;;;;;;;9.80;3.30;;;;;;;14.56;100.00;100888.94;5281651;28;20027;-76
2024/02/16 06:04:09;;;;;;;6.85;2.78;;;;;;;14.61;100.00;100905.38;5283051;28;20023;-76
2024/02/16 06:06:40;;;;;;;10.98;3.15;;;;;;;14.56;100.00;100898.88;5285759;28;20481;-76
2024/02/16 06:09:10;;;;;;;8.68;3.22;;;;;;;14.57;100.00;100908.66;5282039;28;20024;-76
2024/02/16 06:11:41;;;;;;;7.72;3.00;;;;;;;14.60;100.00;100914.50;5283200;28;20027;-76
2024/02/16 06:14:11;;;;;;;6.70;2.83;;;;;;;14.57;100.00;100923.00;5282359;28;20027;-76
2024/02/16 06:16:42;;;;;;;9.40;3.08;;;;;;;14.46;100.00;100915.38;5283669;28;20020;-76
2024/02/16 06:19:12;;;;;;;14.68;3.13;;;;;;;14.48;100.00;100919.56;5285115;27;20020;-76
2024/02/16 06:21:43;;;;;;;9.30;2.88;;;;;;;14.45;100.00;100921.75;5282451;28;20036;-76
2024/02/16 06:24:13;;;;;;;7.20;2.65;;;;;;;14.46;100.00;100929.69;5283255;28;20072;-76
2024/02/16 06:26:44;;;;;;;5.30;2.70;;;;;;;14.49;100.00;100934.72;5280370;28;20027;-76
2024/02/16 06:29:15;;;;;;;7.65;3.28;;;;;;;14.52;100.00;100932.69;5282257;28;20457;-76
2024/02/16 06:31:47;;;;;;;9.85;3.08;;;;;;;14.50;100.00;100938.25;5284141;28;20035;-76
2024/02/16 06:34:19;;;;;;;6.22;2.63;;;;;;;14.54;100.00;100941.44;5281034;28;20027;-76
2024/02/16 06:36:49;;;;;;;9.23;3.17;;;;;;;14.54;100.00;100944.13;5284687;28;20057;-76
2024/02/16 06:39:20;;;;;;;9.18;3.20;;;;;;;14.56;100.00;100942.06;5282021;28;20035;-76
2024/02/16 06:41:50;;;;;;;7.90;3.33;;;;;;;14.54;100.00;100944.13;5289976;27;20015;-76
2024/02/16 06:44:20;;;;;;;9.73;3.08;;;;;;;14.59;100.00;100960.59;5282461;27;20036;-76
2024/02/16 06:46:51;;;;;;;9.52;3.03;;;;;;;14.64;100.00;100953.59;5283077;27;20125;-75
2024/02/16 06:49:22;;;;;;;6.00;3.30;;;;;;;14.65;100.00;100959.81;5282729;28;20400;-77
2024/02/16 06:51:52;;;;;;;10.23;3.30;;;;;;;14.73;100.00;100957.03;5288773;27;20023;-76
2024/02/16 06:54:24;;;;;;;8.43;3.70;;;;;;;14.72;100.00;100964.28;5285330;27;20541;-76
2024/02/16 06:56:55;;;;;;;7.35;3.28;;;;;;;14.82;100.00;100965.84;5284569;27;20358;-76
2024/02/16 06:59:25;;;;;;;6.57;3.47;;;;;;;14.90;100.00;100973.81;5288881;28;20090;-76
2024/02/16 07:01:56;;;;;;;9.65;3.28;;;;;;;14.89;100.00;100975.69;5275446;27;20051;-76
2024/02/16 07:04:26;;;;;;;7.32;3.40;;;;;;;14.94;100.00;100973.25;5288194;27;20031;-76
2024/02/16 07:06:57;;;;;;;8.82;3.55;;;;;;;15.02;100.00;100977.69;5286497;27;20016;-76
2024/02/16 07:09:27;;;;;;;11.75;3.97;;;;;;;15.03;100.00;100982.06;5284666;28;20103;-76
2024/02/16 07:11:58;;;;;;;12.10;4.32;;;;;;;15.10;100.00;100991.06;5286984;28;20088;-76
2024/02/16 07:14:29;;;;;;;9.07;3.75;;;;;;;15.18;100.00;100992.81;5280471;27;20511;-76
2024/02/16 07:16:59;;;;;;;15.07;5.55;;;;;;;15.20;100.00;100980.78;5283445;27;20468;-75
2024/02/16 07:19:30;;;;;;;8.45;4.13;;;;;;;15.26;100.00;100985.44;5287263;28;20242;-76
2024/02/16 07:22:00;;;;;;;9.90;4.07;;;;;;;15.33;100.00;101000.88;5285958;27;20011;-76
2024/02/16 07:24:30;;;;;;;8.07;3.65;;;;;;;15.25;100.00;101012.63;5281071;27;20060;-76
2024/02/16 07:27:01;;;;;;;16.70;4.47;;;;;;;15.16;100.00;101011.94;5277600;28;20026;-77
2024/02/16 07:29:32;;;;;;;14.40;7.03;;;;;;;15.16;100.00;101013.78;5280330;27;20118;-76
2024/02/16 07:32:03;;;;;;;12.52;4.47;;;;;;;15.11;100.00;101021.63;5288126;27;20111;-76
2024/02/16 07:34:33;;;;;;;11.00;4.25;;;;;;;15.02;100.00;101020.94;5285228;27;20024;-76
2024/02/16 07:37:04;;;;;;;8.10;4.10;;;;;;;15.02;100.00;101037.97;5287602;27;20035;-76
2024/02/16 07:39:34;;;;;;;9.60;3.92;;;;;;;14.99;100.00;101040.22;5282420;28;20379;-76
2024/02/16 07:42:05;;;;;;;10.20;4.32;;;;;;;14.96;100.00;101037.88;5284014;27;20019;-77
2024/02/16 07:44:36;;;;;;;10.63;4.63;;;;;;;14.96;100.00;101048.69;5286992;28;20023;-76
2024/02/16 07:47:07;;;;;;;11.63;4.28;;;;;;;14.94;100.00;101045.34;5287437;28;20431;-77
2024/02/16 07:49:39;;;;;;;16.17;4.72;;;;;;;14.90;100.00;101062.94;5286323;27;20031;-76
2024/02/16 07:52:09;;;;;;;15.63;5.22;;;;;;;14.92;100.00;101063.63;5284201;27;20034;-76
2024/02/16 07:54:41;;;;;;;10.98;4.47;;;;;;;14.87;100.00;101064.19;5283941;28;20023;-75
2024/02/16 07:57:11;;;;;;;15.10;4.82;;;;;;;14.93;100.00;101081.50;5284374;27;20031;-76
2024/02/16 07:59:41;;;;;;;12.65;4.80;;;;;;;14.91;100.00;101068.19;5286989;27;20027;-76
2024/02/16 08:02:15;;;;;;;11.65;4.65;;;;;;;14.91;100.00;101067.31;5280363;27;20114;-76
2024/02/16 08:04:48;;;;;;;13.52;4.80;;;;;;;14.91;100.00;101075.41;5285640;28;20104;-76
2024/02/16 08:07:18;;;;;;;14.70;5.55;;;;;;;15.07;100.00;101083.34;5283302;27;20024;-76
2024/02/16 08:09:49;;;;;;;14.35;6.38;;;;;;;15.05;100.00;101079.97;5284441;28;20030;-76
2024/02/16 08:12:19;;;;;;;13.13;4.40;;;;;;;15.13;100.00;101082.56;5281016;28;20106;-76
2024/02/16 08:14:49;;;;;;;17.85;5.13;;;;;;;15.09;100.00;101092.06;5283045;28;20030;-76
2024/02/16 08:17:20;;;;;;;15.55;5.90;;;;;;;15.20;100.00;101090.75;5285571;28;20396;-76
2024/02/16 08:19:53;;;;;;;12.98;5.05;;;;;;;15.31;100.00;101089.41;5279952;28;20553;-76
2024/02/16 08:22:24;;;;;;;13.43;4.88;;;;;;;15.27;100.00;101094.38;5279214;28;20023;-76
2024/02/16 08:24:54;;;;;;;16.40;5.25;;;;;;;15.33;100.00;101085.50;5285922;28;20046;-76
2024/02/16 08:27:25;;;;;;;13.38;5.47;;;;;;;15.36;100.00;101086.97;5283480;27;20609;-76
2024/02/16 08:29:55;;;;;;;12.98;4.72;;;;;;;15.50;100.00;101096.88;5283381;28;20103;-76
2024/02/16 08:32:26;;;;;;;14.40;5.38;;;;;;;15.52;100.00;101103.78;5281964;28;20038;-76
2024/02/16 08:34:58;;;;;;;15.75;5.32;;;;;;;15.54;100.00;101101.72;5284528;27;20399;-76
2024/02/16 08:37:28;;;;;;;20.38;4.43;;;;;;;15.51;100.00;101107.53;5286866;28;20035;-76
2024/02/16 08:39:59;;;;;;;16.63;5.00;;;;;;;15.60;100.00;101113.63;5287591;27;20041;-76
2024/02/16 08:42:29;;;;;;;16.02;4.65;;;;;;;15.67;100.00;101117.28;5284594;27;20024;-76
2024/02/16 08:45:00;;;;;;;18.52;5.05;;;;;;;15.62;100.00;101122.41;5293668;27;20023;-76
2024/02/16 08:47:30;;;;;;;14.45;4.40;;;;;;;15.64;100.00;101116.81;5287879;27;20119;-76
2024/02/16 08:50:01;;;;;;;12.07;4.22;;;;;;;15.73;100.00;101131.91;5288384;27;20107;-76
2024/02/16 08:52:31;;;;;;;14.88;4.95;;;;;;;15.61;100.00;101134.22;5282137;27;20031;-76
2024/02/16 08:55:02;;;;;;;17.50;5.70;;;;;;;15.66;100.00;101134.56;5287323;27;20437;-76
2024/02/16 08:57:33;;;;;;;17.25;5.32;;;;;;;15.61;100.00;101131.53;5286604;27;20019;-76
2024/02/16 09:00:05;;;;;;;22.23;6.88;;;;;;;15.57;100.00;101146.47;5287286;27;20050;-77
2024/02/16 09:02:35;;;;;;;16.45;5.70;;;;;;;15.54;100.00;101144.16;5282062;27;20023;-77
2024/02/16 09:05:06;;;;;;;22.40;8.40;;;;;;;15.38;100.00;101152.50;5289960;27;20110;-77
2024/02/16 09:07:37;;;;;;;15.25;6.28;;;;;;;15.29;100.00;101149.91;5288973;27;20032;-77
2024/02/16 09:10:08;;;;;;;18.85;6.50;;;;;;;15.23;100.00;101152.53;5286896;27;20462;-77
2024/02/16 09:12:38;;;;;;;23.48;6.35;;;;;;;15.09;100.00;101159.63;5286313;27;20027;-77
2024/02/16 09:15:09;;;;;;;16.40;6.05;;;;;;;15.14;100.00;101159.91;5279156;28;20022;-76
2024/02/16 09:17:40;;;;;;;15.75;5.80;;;;;;;15.00;100.00;101164.28;5285764;27;20026;-78
2024/02/16 09:20:11;;;;;;;17.08;6.38;;;;;;;15.16;100.00;101168.66;5287288;27;20019;-77
2024/02/16 09:22:42;;;;;;;28.42;6.70;;;;;;;15.20;100.00;101169.13;5284812;27;20438;-77
2024/02/16 09:25:14;;;;;;;17.38;6.53;;;;;;;15.25;100.00;101172.09;5285104;27;20020;-76
2024/02/16 09:27:44;;;;;;;18.85;6.35;;;;;;;15.19;100.00;101180.97;5278948;27;20112;-76
2024/02/16 09:30:15;;;;;;;19.08;6.85;;;;;;;15.28;100.00;101182.53;5286520;27;20016;-77
2024/02/16 09:32:48;;;;;;;18.75;6.43;;;;;;;15.33;100.00;101187.38;5286381;27;20097;-76
2024/02/16 09:35:19;;;;;;;17.48;5.95;;;;;;;15.30;100.00;101202.09;5283477;27;20028;-76
2024/02/16 09:37:49;;;;;;;18.25;6.18;;;;;;;15.28;100.00;101199.59;5285810;27;20570;-77
2024/02/16 09:40:21;;;;;;;23.65;6.20;;;;;;;15.35;100.00;101205.06;5287684;27;20019;-77
2024/02/16 09:42:51;;;;;;;20.85;7.07;;;;;;;15.30;100.00;101212.91;5283738;27;20034;-77
2024/02/16 09:45:24;;;;;;;16.90;5.63;;;;;;;15.20;100.00;101229.41;5282836;27;20024;-75
2024/02/16 09:47:55;;;;;;;21.20;7.03;;;;;;;15.17;100.00;101216.28;5268317;28;20027;-76
2024/02/16 09:50:28;;;;;;;19.85;6.88;;;;;;;15.13;100.00;101228.50;5280536;28;20019;-76
2024/02/16 09:52:58;;;;;;;20.10;6.93;;;;;;;14.98;100.00;101224.94;5283648;27;20015;-76
2024/02/16 09:55:33;;;;;;;17.83;6.93;;;;;;;15.01;100.00;101236.22;5276635;28;20116;-75
2024/02/16 09:58:04;;;;;;;25.42;6.57;;;;;;;15.01;100.00;101235.41;5289849;27;20422;-76
2024/02/16 10:00:35;;;;;;;17.88;7.20;;;;;;;15.01;100.00;101240.81;5281204;27;20073;-76
2024/02/16 10:03:05;;;;;;;18.08;6.95;;;;;;;14.91;100.00;101241.06;5287210;27;20388;-76
2024/02/16 10:05:36;;;;;;;19.52;7.03;;;;;;;14.99;100.00;101245.53;5284848;27;20027;-75
2024/02/16 10:08:12;;;;;;;19.33;8.07;;;;;;;15.02;100.00;101253.28;5286590;27;20030;-76
2024/02/16 10:10:42;;;;;;;28.80;13.55;;;;;;;15.13;100.00;101252.81;5280545;28;20039;-76
2024/02/16 10:13:13;;;;;;;36.95;16.48;;;;;;;15.10;100.00;101247.75;5283410;27;20032;-76
2024/02/16 10:15:44;;;;;;;108.70;68.72;;;;;;;14.98;100.00;101257.38;5287124;27;20362;-76
2024/02/16 10:18:15;;;;;;;26.45;12.52;;;;;;;14.99;100.00;101259.88;5291359;27;20020;-76
2024/02/16 10:20:45;;;;;;;17.95;8.38;;;;;;;15.11;100.00;101257.56;5290649;27;20104;-76
2024/02/16 10:23:16;;;;;;;35.85;15.65;;;;;;;15.20;100.00;101269.94;5283659;28;20012;-76
2024/02/16 10:25:46;;;;;;;17.13;6.72;;;;;;;15.15;100.00;101280.47;5290008;27;20020;-76
2024/02/16 10:28:20;;;;;;;21.40;9.23;;;;;;;15.21;100.00;101278.88;5287072;27;20019;-76
2024/02/16 10:30:51;;;;;;;19.50;8.75;;;;;;;15.23;100.00;101284.97;5290842;27;20399;-75
2024/02/16 10:33:22;;;;;;;20.00;7.47;;;;;;;15.25;100.00;101291.84;5291418;27;20111;-75
2024/02/16 10:35:53;;;;;;;19.45;7.93;;;;;;;15.33;100.00;101292.78;5292164;27;20110;-75
2024/02/16 10:38:26;;;;;;;17.95;7.68;;;;;;;15.24;100.00;101292.88;5284277;27;20634;-75
2024/02/16 10:41:00;;;;;;;20.70;10.15;;;;;;;15.29;100.00;101298.56;5287449;27;20031;-75
2024/02/16 10:43:31;;;;;;;23.60;9.00;;;;;;;15.38;100.00;101306.59;5287734;27;20027;-75
2024/02/16 10:46:02;;;;;;;20.45;7.47;;;;;;;15.29;100.00;101308.53;5291858;27;20041;-76
2024/02/16 10:48:32;;;;;;;23.77;8.00;;;;;;;15.43;100.00;101317.69;5288287;27;20123;-76
2024/02/16 10:51:03;;;;;;;19.13;7.55;;;;;;;15.35;100.00;101323.16;5292773;27;20011;-76
2024/02/16 10:53:34;;;;;;;15.25;6.82;;;;;;;15.29;100.00;101333.69;5292358;27;20035;-76
2024/02/16 10:56:07;;;;;;;15.65;6.90;;;;;;;15.31;100.00;101329.97;5290311;27;20048;-75
2024/02/16 10:58:37;;;;;;;23.75;8.00;;;;;;;15.24;100.00;101335.28;5289963;27;20078;-76
2024/02/16 11:01:11;;;;;;;23.80;8.20;;;;;;;15.22;100.00;101342.75;5288777;27;20043;-76
2024/02/16 11:03:41;;;;;;;17.60;7.60;;;;;;;15.23;100.00;101352.53;5288043;27;20031;-75
2024/02/16 11:06:16;;;;;;;19.35;7.10;;;;;;;15.20;100.00;101347.47;5292411;27;20473;-76
2024/02/16 11:08:48;;;;;;;;;;;;;;;15.20;100.00;101348.31;5289511;28;20019;-76
2024/02/16 11:11:23;;;;;;;20.60;7.72;;;;;;;15.27;100.00;101338.47;5288705;27;19908;-75
2024/02/16 11:13:56;;;;;;;15.30;8.27;;;;;;;15.28;100.00;101350.94;5285208;27;20103;-75
2024/02/16 11:16:26;;;;;;;18.65;7.75;;;;;;;15.18;100.00;101357.66;5289103;27;20019;-75
2024/02/16 11:18:57;;;;;;;16.80;7.63;;;;;;;15.23;100.00;101358.78;5286704;27;20350;-76
2024/02/16 11:21:27;;;;;;;17.02;7.47;;;;;;;15.19;100.00;101362.03;5284436;28;20028;-75
2024/02/16 11:24:06;;;;;;;16.92;8.13;;;;;;;15.11;100.00;101356.69;5293061;27;20024;-76
2024/02/16 11:26:44;;;;;;;22.08;8.32;;;;;;;15.20;100.00;101364.53;5288116;27;20107;-75
2024/02/16 11:29:14;;;;;;;14.85;8.25;;;;;;;15.18;100.00;101372.00;5279497;27;20119;-76
2024/02/16 11:31:46;;;;;;;23.42;9.20;;;;;;;15.08;100.00;101367.88;5277247;28;20115;-76
2024/02/16 11:34:25;;;;;;;17.95;8.32;;;;;;;14.99;100.00;101375.22;5286739;27;20023;-76